createdAt,value
2023-04-15T00:01:19.962Z,11.97
2023-04-15T00:03:47.413Z,11.40
2023-04-15T00:06:14.472Z,13.17
2023-04-15T00:08:41.807Z,14.20
2023-04-15T00:11:08.267Z,13.30
2023-04-15T00:13:34.742Z,14.37
2023-04-15T00:16:02.473Z,13.70
2023-04-15T00:18:29.698Z,13.53
2023-04-15T00:20:56.347Z,12.63
2023-04-15T00:23:22.848Z,13.27
2023-04-15T00:25:49.280Z,14.50
2023-04-15T00:28:15.769Z,12.93
2023-04-15T00:30:42.287Z,12.10
2023-04-15T00:33:08.716Z,11.70
2023-04-15T00:35:36.690Z,13.10
2023-04-15T00:38:04.739Z,12.80
2023-04-15T00:40:31.198Z,13.70
2023-04-15T00:42:57.627Z,13.27
2023-04-15T00:45:24.144Z,13.00
2023-04-15T00:47:51.273Z,13.87
2023-04-15T00:50:17.684Z,11.83
2023-04-15T00:52:44.186Z,11.90
2023-04-15T00:55:11.261Z,12.23
2023-04-15T00:57:39.243Z,11.43
2023-04-15T01:00:07.981Z,13.53
2023-04-15T01:02:35.541Z,13.43
2023-04-15T01:05:02.664Z,14.17
2023-04-15T01:07:29.192Z,15.37
2023-04-15T01:09:55.676Z,12.43
2023-04-15T01:12:22.104Z,12.53
2023-04-15T01:14:48.501Z,13.83
2023-04-15T01:17:14.894Z,14.53
2023-04-15T01:19:41.517Z,12.87
2023-04-15T01:22:07.986Z,13.13
2023-04-15T01:24:36.101Z,15.67
2023-04-15T01:27:03.377Z,16.83
2023-04-15T01:29:31.722Z,19.77
2023-04-15T01:31:58.459Z,15.90
2023-04-15T01:34:24.960Z,17.83
2023-04-15T01:36:52.145Z,16.10
2023-04-15T01:39:19.311Z,17.03
2023-04-15T01:41:45.841Z,19.90
2023-04-15T01:44:12.359Z,17.83
2023-04-15T01:46:39.233Z,17.00
2023-04-15T01:49:06.230Z,14.93
2023-04-15T01:51:32.911Z,14.97
2023-04-15T01:53:59.337Z,17.80
2023-04-15T01:56:26.589Z,15.53
2023-04-15T01:58:53.197Z,16.37
2023-04-15T02:01:20.008Z,17.37
2023-04-15T02:03:48.208Z,17.33
2023-04-15T02:06:14.785Z,17.23
2023-04-15T02:08:41.220Z,16.63
2023-04-15T02:11:08.394Z,15.93
2023-04-15T02:13:34.767Z,16.10
2023-04-15T02:16:01.727Z,18.47
2023-04-15T02:18:28.210Z,16.57
2023-04-15T02:20:54.669Z,19.03
2023-04-15T02:23:21.328Z,16.63
2023-04-15T02:25:53.304Z,14.97
2023-04-15T02:28:20.973Z,17.73
2023-04-15T02:30:50.982Z,16.13
2023-04-15T02:33:17.541Z,17.97
2023-04-15T02:35:45.318Z,14.73
2023-04-15T02:38:11.998Z,13.73
2023-04-15T02:40:38.376Z,15.07
2023-04-15T02:43:06.915Z,17.63
2023-04-15T02:45:33.653Z,13.77
2023-04-15T02:48:03.892Z,17.10
2023-04-15T02:50:31.587Z,15.57
2023-04-15T02:52:58.277Z,17.63
2023-04-15T02:55:24.660Z,15.10
2023-04-15T02:57:51.085Z,15.40
2023-04-15T03:00:17.553Z,16.10
2023-04-15T03:02:46.180Z,14.40
2023-04-15T03:05:14.220Z,13.10
2023-04-15T03:07:40.963Z,16.07
2023-04-15T03:10:08.197Z,15.60
2023-04-15T03:12:34.601Z,16.20
2023-04-15T03:15:02.099Z,15.40
2023-04-15T03:17:28.789Z,16.30
2023-04-15T03:19:55.662Z,18.40
2023-04-15T03:22:22.173Z,15.97
2023-04-15T03:24:48.549Z,17.53
2023-04-15T03:27:14.949Z,20.00
2023-04-15T03:29:41.368Z,16.00
2023-04-15T03:32:08.027Z,20.87
2023-04-15T03:34:34.436Z,17.40
2023-04-15T03:37:01.062Z,17.93
2023-04-15T03:39:27.456Z,17.40
2023-04-15T03:41:53.851Z,19.67
2023-04-15T03:44:20.285Z,17.27
2023-04-15T03:46:46.694Z,17.27
2023-04-15T03:49:14.075Z,16.80
2023-04-15T03:51:40.666Z,15.93
2023-04-15T03:54:07.142Z,15.37
2023-04-15T03:56:33.536Z,17.30
2023-04-15T03:59:00.220Z,16.50
2023-04-15T04:01:26.820Z,16.13
2023-04-15T04:03:53.363Z,16.63
2023-04-15T04:06:20.000Z,15.23
2023-04-15T04:08:46.384Z,16.67
2023-04-15T04:11:12.916Z,20.80
2023-04-15T04:13:40.158Z,15.93
2023-04-15T04:16:07.140Z,19.93
2023-04-15T04:18:33.849Z,20.47
2023-04-15T04:21:00.701Z,19.27
2023-04-15T04:23:27.161Z,20.33
2023-04-15T04:25:53.565Z,20.93
2023-04-15T04:28:20.024Z,20.63
2023-04-15T04:30:46.496Z,18.87
2023-04-15T04:33:13.028Z,20.90
2023-04-15T04:35:39.433Z,21.77
2023-04-15T04:38:06.311Z,22.73
2023-04-15T04:40:32.779Z,26.00
2023-04-15T04:42:59.450Z,23.83
2023-04-15T04:45:25.856Z,23.10
2023-04-15T04:47:52.344Z,24.10
2023-04-15T04:50:18.869Z,28.60
2023-04-15T04:52:45.413Z,27.67
2023-04-15T04:55:11.862Z,25.83
2023-04-15T04:57:39.571Z,24.53
2023-04-15T05:00:08.475Z,23.03
2023-04-15T05:02:35.414Z,24.30
2023-04-15T05:05:01.882Z,27.00
2023-04-15T05:07:28.561Z,23.73
2023-04-15T05:09:54.995Z,26.67
2023-04-15T05:12:21.601Z,26.40
2023-04-15T05:14:48.028Z,26.93
2023-04-15T05:17:14.489Z,26.63
2023-04-15T05:19:40.878Z,24.57
2023-04-15T05:22:07.811Z,23.57
2023-04-15T05:24:34.219Z,25.70
2023-04-15T05:27:02.236Z,25.37
2023-04-15T05:29:28.632Z,25.90
2023-04-15T05:31:55.307Z,26.57
2023-04-15T05:34:22.394Z,24.37
2023-04-15T05:36:48.823Z,25.00
2023-04-15T05:39:15.485Z,27.20
2023-04-15T05:41:41.996Z,27.03
2023-04-15T05:44:08.537Z,28.23
2023-04-15T05:46:35.076Z,24.13
2023-04-15T05:49:02.002Z,28.87
2023-04-15T05:51:28.585Z,24.47
2023-04-15T05:53:54.992Z,26.23
2023-04-15T05:56:22.208Z,25.87
2023-04-15T05:58:49.676Z,22.17
2023-04-15T06:01:17.201Z,24.77
2023-04-15T06:03:44.120Z,26.97
2023-04-15T06:06:11.063Z,23.07
2023-04-15T06:08:37.512Z,26.07
2023-04-15T06:11:03.992Z,22.67
2023-04-15T06:13:30.544Z,25.83
2023-04-15T06:15:57.073Z,25.47
2023-04-15T06:18:23.551Z,25.07
2023-04-15T06:20:50.173Z,23.63
2023-04-15T06:23:16.634Z,23.00
2023-04-15T06:25:43.482Z,24.67
2023-04-15T06:28:09.861Z,21.97
2023-04-15T06:30:37.059Z,23.53
2023-04-15T06:33:05.775Z,23.03
2023-04-15T06:35:32.339Z,25.70
2023-04-15T06:37:58.771Z,22.63
2023-04-15T06:40:25.167Z,25.60
2023-04-15T06:42:51.860Z,25.57
2023-04-15T06:45:18.440Z,25.87
2023-04-15T06:47:44.867Z,23.40
2023-04-15T06:50:11.907Z,25.37
2023-04-15T06:52:38.436Z,25.97
2023-04-15T06:55:05.446Z,23.73
2023-04-15T06:57:33.814Z,20.43
2023-04-15T07:00:01.578Z,23.43
2023-04-15T07:02:28.079Z,21.10
2023-04-15T07:04:54.581Z,21.93
2023-04-15T07:07:21.466Z,24.00
2023-04-15T07:09:47.916Z,21.63
2023-04-15T07:12:14.363Z,21.00
2023-04-15T07:14:41.300Z,19.90
2023-04-15T07:17:09.510Z,22.70
2023-04-15T07:19:36.145Z,23.57
2023-04-15T07:22:02.557Z,21.43
2023-04-15T07:24:29.077Z,20.47
2023-04-15T07:27:00.804Z,22.80
2023-04-15T07:29:27.763Z,19.80
2023-04-15T07:31:54.414Z,22.00
2023-04-15T07:34:21.095Z,19.80
2023-04-15T07:36:50.563Z,20.53
2023-04-15T07:39:17.317Z,21.97
2023-04-15T07:41:43.739Z,21.33
2023-04-15T07:44:10.534Z,19.53
2023-04-15T07:46:38.367Z,19.47
2023-04-15T07:49:05.136Z,19.10
2023-04-15T07:51:32.242Z,19.23
2023-04-15T07:53:59.230Z,19.20
2023-04-15T07:56:26.437Z,14.83
2023-04-15T07:58:53.162Z,14.87
2023-04-15T08:01:19.569Z,19.03
2023-04-15T08:03:46.587Z,18.33
2023-04-15T08:06:13.155Z,17.77
2023-04-15T08:08:39.868Z,13.27
2023-04-15T08:11:06.418Z,14.10
2023-04-15T08:13:32.892Z,13.70
2023-04-15T08:16:18.792Z,13.17
2023-04-15T08:18:48.174Z,14.23
2023-04-15T08:21:14.948Z,14.63
2023-04-15T08:23:41.488Z,14.07
2023-04-15T08:26:08.689Z,13.33
2023-04-15T08:28:35.745Z,14.30
2023-04-15T08:31:02.229Z,13.33
2023-04-15T08:33:29.001Z,13.47
2023-04-15T08:35:55.461Z,12.73
2023-04-15T08:38:21.898Z,11.33
2023-04-15T08:40:48.326Z,11.70
2023-04-15T08:43:28.564Z,12.73
2023-04-15T08:45:55.735Z,14.03
2023-04-15T08:48:24.593Z,13.10
2023-04-15T08:50:51.581Z,12.73
2023-04-15T08:53:18.136Z,10.77
2023-04-15T08:55:46.323Z,11.70
2023-04-15T08:58:14.218Z,11.80
2023-04-15T09:00:41.384Z,10.97
2023-04-15T09:03:08.911Z,12.00
2023-04-15T09:05:36.498Z,12.27
2023-04-15T09:08:03.410Z,10.60
2023-04-15T09:10:30.052Z,10.00
2023-04-15T09:12:57.212Z,9.70
2023-04-15T09:15:29.866Z,9.80
2023-04-15T09:17:56.897Z,9.70
2023-04-15T09:20:23.711Z,9.00
2023-04-15T09:22:51.085Z,11.57
2023-04-15T09:25:24.346Z,9.83
2023-04-15T09:27:56.574Z,10.83
2023-04-15T09:30:23.596Z,11.13
2023-04-15T09:32:54.514Z,10.73
2023-04-15T09:35:22.247Z,11.27
2023-04-15T09:37:49.620Z,12.17
2023-04-15T09:40:31.576Z,9.33
2023-04-15T09:42:58.031Z,8.70
2023-04-15T09:45:25.682Z,10.80
2023-04-15T09:47:53.570Z,9.63
2023-04-15T09:50:20.813Z,9.37
2023-04-15T09:52:47.436Z,10.03
2023-04-15T09:55:15.027Z,8.33
2023-04-15T09:57:41.840Z,10.10
2023-04-15T10:00:11.145Z,9.53
2023-04-15T10:02:39.373Z,7.87
2023-04-15T10:05:07.120Z,9.63
2023-04-15T10:07:33.958Z,8.60
2023-04-15T10:10:02.405Z,9.57
2023-04-15T10:12:29.427Z,9.13
2023-04-15T10:14:59.504Z,9.70
2023-04-15T10:17:30.524Z,9.47
2023-04-15T10:19:58.575Z,9.93
2023-04-15T10:22:26.409Z,8.90
2023-04-15T10:24:53.229Z,10.33
2023-04-15T10:27:20.455Z,11.23
2023-04-15T10:29:48.552Z,11.43
2023-04-15T10:32:16.054Z,11.67
2023-04-15T10:34:42.450Z,12.13
2023-04-15T10:37:10.980Z,12.30
2023-04-15T10:39:40.273Z,12.40
2023-04-15T10:42:07.530Z,11.03
2023-04-15T10:44:33.970Z,13.03
2023-04-15T10:47:00.751Z,12.97
2023-04-15T10:49:27.197Z,12.70
2023-04-15T10:51:58.048Z,15.13
2023-04-15T10:54:24.343Z,14.17
2023-04-15T10:57:08.892Z,15.10
2023-04-15T10:59:59.295Z,13.67
2023-04-15T11:02:45.272Z,13.10
2023-04-15T11:05:12.733Z,14.03
2023-04-15T11:07:42.362Z,12.67
2023-04-15T11:10:17.506Z,14.70
2023-04-15T11:13:03.744Z,17.90
2023-04-15T11:15:42.683Z,16.17
2023-04-15T11:18:16.365Z,16.83
2023-04-15T11:20:54.474Z,17.23
2023-04-15T11:23:41.185Z,15.93
2023-04-15T11:26:12.455Z,18.17
2023-04-15T11:28:42.080Z,15.80
2023-04-15T11:31:11.360Z,18.87
2023-04-15T11:33:39.117Z,17.07
2023-04-15T11:36:05.612Z,19.93
2023-04-15T11:38:32.237Z,21.60
2023-04-15T11:40:58.640Z,24.23
2023-04-15T11:43:25.363Z,21.27
2023-04-15T11:46:02.530Z,23.70
2023-04-15T11:48:35.243Z,23.80
2023-04-15T11:51:03.818Z,26.33
2023-04-15T11:53:45.883Z,26.43
2023-04-15T11:58:44.734Z,27.63
2023-04-15T12:01:11.141Z,29.27
2023-04-15T12:03:43.233Z,31.33
2023-04-15T12:06:14.077Z,30.63
2023-04-15T12:08:55.990Z,32.20
2023-04-15T12:11:41.026Z,36.30
